Time;durP1;ratioP1;P1;durP2;ratioP2;P2;SDS_P1;SDS_P2;PMS_P1;PMS_P2;Temp;Humidity;BMP_temperature;BMP_pressure;BME280_temperature;BME280_humidity;BME280_pressure;Samples;Min_cycle;Max_cycle;Signal;HPM_P1;HPM_P2
2023/12/03 00:02:13;;;;;;;36.40;14.38;;;1.20;15.30;;;;;;5140808;28;20161;-84
2023/12/03 00:04:39;;;;;;;37.13;14.25;;;1.20;8.90;;;;;;5140763;27;20208;-83
2023/12/03 00:07:05;;;;;;;38.40;16.02;;;1.10;6.20;;;;;;5140463;27;20171;-83
2023/12/03 00:09:31;;;;;;;37.73;13.80;;;1.10;12.80;;;;;;5133180;28;20198;-84
2023/12/03 00:11:56;;;;;;;40.27;15.33;;;1.10;15.40;;;;;;5126162;28;20169;-84
2023/12/03 00:14:24;;;;;;;39.07;14.00;;;1.10;14.10;;;;;;5125416;28;20427;-84
2023/12/03 00:16:50;;;;;;;36.45;14.60;;;1.10;14.30;;;;;;5126631;28;20577;-84
2023/12/03 00:19:16;;;;;;;40.67;13.27;;;1.00;16.10;;;;;;5125067;28;20248;-84
2023/12/03 00:21:41;;;;;;;36.23;13.50;;;1.00;21.30;;;;;;5126478;28;20150;-84
2023/12/03 00:24:07;;;;;;;36.63;13.57;;;1.00;23.90;;;;;;5126317;28;20182;-84
2023/12/03 00:26:33;;;;;;;32.50;12.80;;;1.00;22.80;;;;;;5123895;28;20577;-83
2023/12/03 00:28:58;;;;;;;37.70;14.47;;;1.00;23.90;;;;;;5125495;28;20193;-84
2023/12/03 00:31:24;;;;;;;34.97;12.10;;;1.00;23.40;;;;;;5125303;28;20170;-83
2023/12/03 00:33:50;;;;;;;36.50;14.10;;;1.00;23.80;;;;;;5126032;28;20194;-84
2023/12/03 00:36:15;;;;;;;32.47;12.77;;;1.00;23.90;;;;;;5126058;28;20177;-84
2023/12/03 00:38:41;;;;;;;38.00;12.97;;;1.00;28.70;;;;;;5126640;28;20191;-84
2023/12/03 00:41:07;;;;;;;38.27;14.03;;;1.00;24.70;;;;;;5126234;28;20297;-83
2023/12/03 00:43:33;;;;;;;35.03;13.18;;;1.10;23.70;;;;;;5124777;28;20193;-84
2023/12/03 00:45:59;;;;;;;37.50;14.37;;;1.00;24.60;;;;;;5126104;28;20159;-83
2023/12/03 00:48:25;;;;;;;35.33;12.85;;;1.00;25.70;;;;;;5126401;27;20163;-84
2023/12/03 00:50:51;;;;;;;32.57;11.30;;;1.00;29.00;;;;;;5126310;27;20164;-84
2023/12/03 00:53:16;;;;;;;33.50;12.87;;;1.00;44.20;;;;;;5126464;28;20231;-84
2023/12/03 00:55:42;;;;;;;32.57;12.63;;;1.00;45.10;;;;;;5126648;28;20170;-84
2023/12/03 00:58:08;;;;;;;33.63;12.27;;;1.00;40.60;;;;;;5126159;28;20209;-84
2023/12/03 01:00:34;;;;;;;40.10;14.10;;;1.00;39.20;;;;;;5124967;28;20189;-84
2023/12/03 01:02:59;;;;;;;40.13;13.23;;;1.00;44.70;;;;;;5126136;28;20527;-84
2023/12/03 01:05:25;;;;;;;40.50;14.67;;;0.90;44.70;;;;;;5126137;28;20230;-84
2023/12/03 01:07:51;;;;;;;35.40;12.70;;;0.90;54.30;;;;;;5126225;28;20170;-84
2023/12/03 01:10:16;;;;;;;34.40;13.60;;;0.90;55.80;;;;;;5126095;28;20190;-83
2023/12/03 01:12:42;;;;;;;39.93;14.70;;;0.90;61.30;;;;;;5124387;28;20220;-84
2023/12/03 01:15:08;;;;;;;38.97;14.77;;;0.90;57.00;;;;;;5124854;28;20187;-83
2023/12/03 01:17:34;;;;;;;39.83;15.23;;;0.90;59.30;;;;;;5126418;28;20163;-84
2023/12/03 01:20:00;;;;;;;42.63;15.00;;;0.90;57.90;;;;;;5126166;28;20167;-84
2023/12/03 01:22:25;;;;;;;38.53;14.20;;;0.90;56.40;;;;;;5123105;28;20408;-83
2023/12/03 01:24:51;;;;;;;42.43;15.20;;;0.90;57.70;;;;;;5125904;28;20183;-84
2023/12/03 01:27:17;;;;;;;36.07;13.47;;;0.90;60.70;;;;;;5125156;28;20163;-84
2023/12/03 01:29:42;;;;;;;36.30;14.13;;;1.00;61.90;;;;;;5126002;28;20167;-84
2023/12/03 01:32:08;;;;;;;36.90;14.57;;;1.00;56.70;;;;;;5125958;28;20524;-84
2023/12/03 01:34:34;;;;;;;38.10;13.40;;;1.10;50.30;;;;;;5123543;28;20460;-83
2023/12/03 01:37:00;;;;;;;35.83;12.10;;;1.00;56.70;;;;;;5125812;28;20171;-84
2023/12/03 01:39:25;;;;;;;39.07;16.17;;;1.00;61.40;;;;;;5124209;28;20195;-83
2023/12/03 01:41:54;;;;;;;41.20;13.27;;;1.00;59.20;;;;;;5125189;28;20484;-83
2023/12/03 01:44:20;;;;;;;36.80;13.90;;;1.00;59.80;;;;;;5125018;28;20186;-83
2023/12/03 01:46:50;;;;;;;39.20;14.17;;;1.10;64.20;;;;;;5124615;28;20174;-83
2023/12/03 01:49:17;;;;;;;38.85;13.48;;;1.10;60.70;;;;;;5124096;28;20166;-83
2023/12/03 01:51:43;;;;;;;38.47;13.60;;;1.10;51.50;;;;;;5125352;28;20174;-83
2023/12/03 01:54:09;;;;;;;36.10;13.20;;;1.10;61.00;;;;;;5124153;28;20179;-84
2023/12/03 01:56:35;;;;;;;38.55;15.07;;;1.10;60.70;;;;;;5124415;28;20487;-83
2023/12/03 01:59:01;;;;;;;37.87;14.80;;;1.10;54.70;;;;;;5123846;28;20230;-83
2023/12/03 02:01:29;;;;;;;41.67;14.27;;;1.10;55.60;;;;;;5124662;27;20167;-83
2023/12/03 02:03:55;;;;;;;35.92;14.05;;;1.10;54.40;;;;;;5277742;22;20756;-83
2023/12/03 02:06:21;;;;;;;35.30;13.10;;;1.00;60.80;;;;;;5194892;22;20250;-83
2023/12/03 02:08:49;;;;;;;38.37;13.50;;;1.10;63.40;;;;;;5098543;28;20163;-83
2023/12/03 02:11:15;;;;;;;38.70;14.35;;;1.00;64.10;;;;;;5098760;28;20415;-83
2023/12/03 02:13:42;;;;;;;37.30;11.88;;;1.10;67.80;;;;;;5098734;28;20186;-83
2023/12/03 02:16:08;;;;;;;33.83;12.02;;;1.10;69.50;;;;;;5097392;28;20171;-83
2023/12/03 02:18:34;;;;;;;34.28;12.55;;;1.00;68.10;;;;;;5098372;28;20183;-83
2023/12/03 02:20:59;;;;;;;39.37;14.53;;;1.10;69.30;;;;;;5098632;28;20188;-83
2023/12/03 02:23:29;;;;;;;36.70;14.10;;;1.20;61.90;;;;;;5098486;28;20492;-83
2023/12/03 02:25:54;;;;;;;37.33;11.95;;;1.20;57.60;;;;;;5099217;28;20589;-83
2023/12/03 02:28:20;;;;;;;35.83;12.10;;;1.20;55.10;;;;;;5098886;28;20193;-83
2023/12/03 02:30:46;;;;;;;34.50;11.43;;;1.20;57.90;;;;;;5098595;28;20162;-83
2023/12/03 02:33:12;;;;;;;35.77;11.87;;;1.20;53.70;;;;;;5098322;28;20174;-83
2023/12/03 02:35:37;;;;;;;31.57;11.67;;;1.20;49.90;;;;;;5099376;28;20253;-83
2023/12/03 02:38:03;;;;;;;30.90;11.30;;;1.20;44.90;;;;;;5098601;28;20472;-83
2023/12/03 02:40:33;;;;;;;31.67;9.63;;;1.10;50.50;;;;;;5098810;28;20174;-83
2023/12/03 02:42:59;;;;;;;34.40;11.25;;;1.00;46.40;;;;;;5098807;28;20169;-83
2023/12/03 02:45:25;;;;;;;38.05;12.48;;;0.90;47.40;;;;;;5097004;28;20187;-83
2023/12/03 02:47:50;;;;;;;34.93;11.80;;;0.90;60.70;;;;;;5097429;28;20221;-83
2023/12/03 02:50:16;;;;;;;35.33;12.30;;;0.80;60.40;;;;;;5099081;28;20256;-83
2023/12/03 02:52:42;;;;;;;33.40;12.70;;;0.80;71.40;;;;;;5098496;28;20171;-83
2023/12/03 02:55:10;;;;;;;38.33;13.70;;;0.80;71.90;;;;;;5098148;28;20194;-83
2023/12/03 02:57:36;;;;;;;35.42;12.32;;;0.80;75.90;;;;;;5097928;28;20164;-83
2023/12/03 03:00:21;;;;;;;32.77;12.57;;;0.70;79.20;;;;;;5096612;28;20169;-83
2023/12/03 03:02:47;;;;;;;34.47;12.38;;;0.70;83.20;;;;;;5097779;28;20171;-83
2023/12/03 03:05:13;;;;;;;36.63;12.50;;;0.60;85.10;;;;;;5098238;28;20222;-83
2023/12/03 03:07:38;;;;;;;33.50;11.90;;;0.60;90.90;;;;;;5097928;28;20182;-83
2023/12/03 03:10:05;;;;;;;32.67;11.37;;;0.60;94.10;;;;;;5098254;28;20242;-83
2023/12/03 03:12:30;;;;;;;31.83;12.10;;;0.60;96.00;;;;;;5098377;28;20245;-83
2023/12/03 03:14:56;;;;;;;35.87;11.63;;;0.70;95.00;;;;;;5098121;28;20602;-83
2023/12/03 03:17:22;;;;;;;34.70;12.50;;;0.60;92.00;;;;;;5097880;28;20531;-83
2023/12/03 03:19:47;;;;;;;33.50;13.20;;;0.70;94.30;;;;;;5096789;28;20231;-83
2023/12/03 03:22:13;;;;;;;38.70;12.90;;;0.70;89.90;;;;;;5098368;28;20703;-83
2023/12/03 03:24:40;;;;;;;37.47;12.57;;;0.70;86.70;;;;;;5098118;28;20214;-83
2023/12/03 03:27:06;;;;;;;33.13;12.75;;;0.70;87.90;;;;;;5098316;28;20397;-83
2023/12/03 03:29:33;;;;;;;33.23;11.20;;;0.70;89.40;;;;;;5098003;28;20728;-83
2023/12/03 03:31:58;;;;;;;34.63;12.90;;;0.80;88.90;;;;;;5098127;28;20164;-83
2023/12/03 03:34:24;;;;;;;31.53;11.53;;;0.70;86.00;;;;;;5097646;28;20243;-83
2023/12/03 03:36:50;;;;;;;35.27;13.30;;;0.60;84.70;;;;;;5097813;28;20175;-83
2023/12/03 03:39:16;;;;;;;33.13;10.75;;;0.60;87.50;;;;;;5098353;28;20180;-83
2023/12/03 03:41:41;;;;;;;32.77;11.50;;;0.50;85.80;;;;;;5096985;28;20530;-83
2023/12/03 03:44:07;;;;;;;32.03;10.93;;;0.40;90.50;;;;;;5098137;28;20218;-83
2023/12/03 03:46:33;;;;;;;34.63;11.87;;;0.30;91.90;;;;;;5101968;28;20182;-83
2023/12/03 03:48:58;;;;;;;33.13;11.60;;;0.30;93.70;;;;;;5101967;28;20190;-84
2023/12/03 03:51:24;;;;;;;32.77;12.13;;;0.30;96.60;;;;;;5101946;28;20632;-83
2023/12/03 03:53:50;;;;;;;39.40;11.93;;;0.30;97.90;;;;;;5100088;28;20223;-83
2023/12/03 03:56:17;;;;;;;32.00;11.70;;;0.30;96.20;;;;;;5101671;28;20257;-83
2023/12/03 03:58:42;;;;;;;35.03;13.40;;;0.20;98.10;;;;;;5101693;28;20690;-83
2023/12/03 04:01:09;;;;;;;32.80;11.77;;;0.30;99.90;;;;;;5101086;28;20170;-83
2023/12/03 04:03:35;;;;;;;36.05;9.65;;;0.30;99.90;;;;;;5101414;28;20202;-83
2023/12/03 04:06:03;;;;;;;30.17;9.68;;;0.40;99.90;;;;;;5100761;28;20265;-83
2023/12/03 04:08:29;;;;;;;34.50;11.57;;;0.40;99.90;;;;;;5101270;28;20632;-83
2023/12/03 04:10:55;;;;;;;32.35;10.55;;;0.40;99.90;;;;;;5099839;28;20191;-83
2023/12/03 04:13:21;;;;;;;28.30;10.20;;;0.40;99.90;;;;;;5100530;28;20201;-83
2023/12/03 04:15:46;;;;;;;34.60;11.23;;;0.50;99.80;;;;;;5101134;28;20712;-83
2023/12/03 04:18:12;;;;;;;34.23;11.30;;;0.50;97.40;;;;;;5101003;28;20202;-83
2023/12/03 04:20:37;;;;;;;36.80;11.20;;;0.40;94.60;;;;;;5099957;28;20352;-83
2023/12/03 04:23:04;;;;;;;29.23;9.90;;;0.30;95.70;;;;;;5099781;28;20163;-83
2023/12/03 04:25:30;;;;;;;29.98;9.65;;;0.40;97.80;;;;;;5100609;28;20193;-83
2023/12/03 04:27:56;;;;;;;29.48;10.38;;;0.40;97.30;;;;;;5100501;28;20177;-83
2023/12/03 04:30:22;;;;;;;31.33;9.40;;;0.40;96.90;;;;;;5100766;28;20190;-83
2023/12/03 04:32:48;;;;;;;30.40;10.33;;;0.50;97.40;;;;;;5100817;28;20170;-83
2023/12/03 04:35:14;;;;;;;33.50;10.80;;;0.50;92.50;;;;;;5101151;28;20424;-83
2023/12/03 04:37:40;;;;;;;36.80;11.45;;;0.40;90.90;;;;;;5101258;28;20825;-83
2023/12/03 04:40:06;;;;;;;32.20;9.17;;;0.50;91.80;;;;;;5100685;28;20161;-83
2023/12/03 04:42:32;;;;;;;25.85;7.43;;;0.50;91.20;;;;;;5099739;28;20165;-83
2023/12/03 04:44:58;;;;;;;29.13;8.93;;;0.50;85.80;;;;;;5100252;28;20233;-83
2023/12/03 04:47:24;;;;;;;34.43;9.63;;;0.50;82.90;;;;;;5099934;28;20409;-83
2023/12/03 04:49:49;;;;;;;26.47;7.93;;;0.60;84.50;;;;;;5100276;28;20404;-83
2023/12/03 04:52:15;;;;;;;29.17;8.90;;;0.60;68.60;;;;;;5100087;28;20163;-83
2023/12/03 04:54:41;;;;;;;26.90;8.43;;;0.60;60.00;;;;;;5098729;28;20933;-83
2023/12/03 04:57:06;;;;;;;30.17;8.70;;;0.60;53.70;;;;;;5100075;28;20916;-83
2023/12/03 04:59:32;;;;;;;28.47;7.43;;;0.50;48.90;;;;;;5100233;28;20221;-83
2023/12/03 05:01:58;;;;;;;29.90;10.53;;;0.40;53.10;;;;;;5098881;28;20173;-83
2023/12/03 05:04:25;;;;;;;29.23;9.03;;;0.50;55.10;;;;;;5098841;28;20210;-83
2023/12/03 05:06:51;;;;;;;30.88;9.63;;;0.60;49.10;;;;;;5100542;28;20179;-83
2023/12/03 05:09:17;;;;;;;25.73;8.13;;;0.50;40.10;;;;;;5099963;28;20185;-83
2023/12/03 05:11:44;;;;;;;27.17;8.47;;;0.50;41.50;;;;;;5099982;28;20495;-83
2023/12/03 05:14:10;;;;;;;25.25;7.60;;;0.50;32.70;;;;;;5099916;28;20470;-83
2023/12/03 05:16:36;;;;;;;29.47;8.60;;;0.50;33.20;;;;;;5100262;28;20706;-83
2023/12/03 05:19:02;;;;;;;29.60;9.13;;;0.50;30.70;;;;;;5099924;28;20961;-83
2023/12/03 05:21:28;;;;;;;27.87;7.03;;;0.60;28.50;;;;;;5099700;28;20191;-83
2023/12/03 05:23:53;;;;;;;29.73;8.60;;;0.60;25.90;;;;;;5100674;28;20185;-83
2023/12/03 05:26:19;;;;;;;29.97;8.40;;;0.50;22.20;;;;;;5098130;28;20761;-83
2023/12/03 05:28:45;;;;;;;28.90;7.77;;;0.40;23.20;;;;;;5098318;28;20173;-83
2023/12/03 05:31:10;;;;;;;36.97;9.20;;;0.40;33.10;;;;;;5098061;28;20171;-83
2023/12/03 05:33:36;;;;;;;29.83;8.20;;;0.50;34.20;;;;;;5098156;28;20209;-83
2023/12/03 05:36:02;;;;;;;33.80;9.17;;;0.60;30.00;;;;;;5099769;28;20513;-83
2023/12/03 05:38:28;;;;;;;29.67;8.40;;;0.60;25.30;;;;;;5099502;28;20691;-83
2023/12/03 05:40:54;;;;;;;30.38;9.32;;;0.60;23.00;;;;;;5099852;28;20179;-83
2023/12/03 05:43:19;;;;;;;29.00;7.73;;;0.60;19.40;;;;;;5099407;28;20177;-83
2023/12/03 05:45:45;;;;;;;32.03;8.10;;;0.50;16.60;;;;;;5099230;28;20166;-83
2023/12/03 05:48:11;;;;;;;30.13;8.50;;;0.50;18.40;;;;;;5100287;28;20168;-83
2023/12/03 05:50:37;;;;;;;24.98;7.35;;;0.40;18.10;;;;;;5099513;28;20166;-83
2023/12/03 05:53:03;;;;;;;30.37;8.00;;;0.40;15.60;;;;;;5099604;28;20650;-83
2023/12/03 05:55:28;;;;;;;27.47;7.20;;;0.30;14.50;;;;;;5099368;28;20537;-83
2023/12/03 05:57:54;;;;;;;25.00;7.50;;;0.30;15.40;;;;;;5099374;28;20269;-83
2023/12/03 06:00:20;;;;;;;27.10;8.20;;;0.40;14.80;;;;;;5098756;28;20525;-83
2023/12/03 06:02:45;;;;;;;26.97;8.10;;;0.30;12.20;;;;;;5099899;28;20527;-83
2023/12/03 06:05:11;;;;;;;30.83;9.00;;;0.20;12.30;;;;;;5098960;28;20649;-83
2023/12/03 06:07:37;;;;;;;29.33;8.10;;;0.10;15.00;;;;;;5098316;28;20918;-83
2023/12/03 06:10:03;;;;;;;27.43;8.30;;;0.20;17.30;;;;;;5098173;28;20172;-83
2023/12/03 06:12:29;;;;;;;29.98;8.27;;;0.20;15.30;;;;;;5097617;28;20268;-83
2023/12/03 06:14:55;;;;;;;25.87;7.70;;;0.20;16.30;;;;;;5098470;28;20222;-83
2023/12/03 06:17:21;;;;;;;29.65;8.13;;;0.20;14.90;;;;;;5096909;28;20204;-83
2023/12/03 06:19:46;;;;;;;30.87;8.60;;;0.10;12.90;;;;;;5351013;22;21716;-82
2023/12/03 06:22:28;;;;;;;30.23;8.83;;;0.10;13.30;;;;;;5113578;22;20234;-82
2023/12/03 06:25:18;;;;;;;25.40;7.38;;;0.10;13.60;;;;;;5086856;28;20211;-83
2023/12/03 06:27:44;;;;;;;28.48;8.50;;;0.10;13.20;;;;;;5104932;28;20143;-82
2023/12/03 06:30:10;;;;;;;29.93;8.50;;;0.20;12.90;;;;;;5104750;28;20245;-82
2023/12/03 06:32:35;;;;;;;28.50;8.70;;;0.10;11.80;;;;;;5086958;28;20170;-82
2023/12/03 06:35:04;;;;;;;29.40;8.63;;;0.10;13.20;;;;;;5086178;28;20204;-82
2023/12/03 06:37:30;;;;;;;29.08;8.55;;;0.10;14.00;;;;;;5085088;28;20199;-82
2023/12/03 06:39:55;;;;;;;33.53;9.90;;;0.10;17.40;;;;;;5103782;28;20163;-82
2023/12/03 06:42:21;;;;;;;28.60;9.00;;;0.10;11.70;;;;;;5101348;28;20831;-83
2023/12/03 06:44:50;;;;;;;29.37;10.13;;;0.10;13.00;;;;;;5098129;28;20178;-82
2023/12/03 06:47:15;;;;;;;28.90;8.13;;;0.10;12.00;;;;;;5097983;28;20160;-82
2023/12/03 06:49:42;;;;;;;30.43;8.97;;;0.10;11.60;;;;;;5097965;28;20186;-82
2023/12/03 06:52:07;;;;;;;30.73;9.48;;;0.00;9.80;;;;;;5097992;28;20933;-82
2023/12/03 06:54:33;;;;;;;30.57;9.07;;;0.00;11.40;;;;;;5097770;28;20274;-82
2023/12/03 06:56:59;;;;;;;33.60;10.90;;;0.10;13.40;;;;;;5097908;28;20181;-82
2023/12/03 06:59:24;;;;;;;33.43;9.63;;;0.10;14.30;;;;;;5098331;28;20725;-82
2023/12/03 07:01:50;;;;;;;32.03;9.80;;;0.10;10.70;;;;;;5097526;28;20166;-81
2023/12/03 07:04:16;;;;;;;29.77;9.10;;;0.00;10.60;;;;;;5097622;28;20528;-82
2023/12/03 07:06:41;;;;;;;31.77;10.20;;;0.00;12.90;;;;;;5079293;28;20176;-82
2023/12/03 07:09:07;;;;;;;31.70;9.27;;;0.10;18.50;;;;;;5097329;28;20202;-82
2023/12/03 07:11:33;;;;;;;29.93;9.60;;;0.10;12.10;;;;;;5079169;28;20178;-81
2023/12/03 07:13:58;;;;;;;28.40;8.80;;;0.10;14.20;;;;;;5097439;28;20612;-82
2023/12/03 07:16:24;;;;;;;32.63;10.67;;;0.10;17.10;;;;;;5097298;28;20170;-82
2023/12/03 07:18:50;;;;;;;34.73;11.07;;;0.20;22.30;;;;;;5097909;28;20251;-82
2023/12/03 07:21:15;;;;;;;30.93;9.30;;;0.40;18.80;;;;;;5083064;28;20194;-82
2023/12/03 07:23:41;;;;;;;34.00;10.40;;;0.30;12.80;;;;;;5083574;28;20201;-81
2023/12/03 07:26:10;;;;;;;32.03;9.73;;;0.30;15.00;;;;;;5101544;28;20194;-81
2023/12/03 07:28:37;;;;;;;34.22;9.57;;;0.40;11.60;;;;;;5101519;28;20247;-82
2023/12/03 07:31:04;;;;;;;34.08;11.02;;;0.30;12.30;;;;;;5101252;28;20190;-82
2023/12/03 07:33:30;;;;;;;31.73;9.38;;;0.30;17.30;;;;;;5102051;28;20183;-82
2023/12/03 07:35:56;;;;;;;33.00;9.80;;;0.30;15.10;;;;;;5083246;28;20610;-82
2023/12/03 07:38:22;;;;;;;29.85;9.40;;;0.20;17.70;;;;;;5101305;28;20202;-83
2023/12/03 07:40:47;;;;;;;33.10;10.33;;;0.30;21.60;;;;;;5101376;28;20588;-81
2023/12/03 07:43:13;;;;;;;32.73;10.33;;;0.40;22.60;;;;;;5100992;28;20157;-82
2023/12/03 07:45:42;;;;;;;29.27;9.00;;;0.40;13.30;;;;;;5101396;28;20167;-82
2023/12/03 07:48:10;;;;;;;32.28;9.25;;;0.30;17.80;;;;;;5083283;28;20953;-82
2023/12/03 07:50:36;;;;;;;30.67;9.40;;;0.30;12.90;;;;;;5082817;28;20177;-82
2023/12/03 07:53:03;;;;;;;30.00;9.10;;;0.30;17.70;;;;;;5082907;28;20176;-82
2023/12/03 07:55:29;;;;;;;32.08;8.95;;;0.30;22.30;;;;;;5082270;28;20198;-82
2023/12/03 07:57:55;;;;;;;34.30;9.30;;;0.30;15.70;;;;;;5083140;28;20266;-82
2023/12/03 08:00:21;;;;;;;31.60;9.60;;;0.30;15.70;;;;;;5101170;28;20167;-82
2023/12/03 08:02:53;;;;;;;28.77;9.23;;;0.30;16.20;;;;;;5082081;28;20195;-84
2023/12/03 08:05:22;;;;;;;31.55;9.63;;;0.30;17.50;;;;;;5082610;28;20186;-82
2023/12/03 08:07:47;;;;;;;30.23;8.90;;;0.50;15.90;;;;;;5100614;28;20574;-81
2023/12/03 08:10:13;;;;;;;32.57;11.03;;;0.50;10.80;;;;;;5101398;28;20168;-81
2023/12/03 08:12:39;;;;;;;31.43;9.10;;;0.40;3.60;;;;;;5100793;28;20173;-81
2023/12/03 08:15:05;;;;;;;33.80;9.83;;;0.40;5.50;;;;;;5082094;28;20426;-81
2023/12/03 08:17:33;;;;;;;26.83;9.13;;;0.40;3.00;;;;;;5082670;28;20167;-81
2023/12/03 08:19:59;;;;;;;30.08;8.88;;;0.50;3.10;;;;;;5100659;28;20173;-82
2023/12/03 08:22:28;;;;;;;34.10;9.97;;;0.50;1.00;;;;;;5100077;28;20174;-81
2023/12/03 08:25:18;;;;;;;32.53;9.27;;;0.40;1.00;;;;;;5081334;28;20203;-81
2023/12/03 08:27:43;;;;;;;32.63;10.60;;;0.30;1.00;;;;;;5099406;28;20203;-81
2023/12/03 08:30:09;;;;;;;31.80;10.43;;;0.30;1.00;;;;;;5081774;28;20166;-81
2023/12/03 08:32:35;;;;;;;30.85;9.27;;;0.20;1.00;;;;;;5082130;28;20170;-82
2023/12/03 08:35:00;;;;;;;34.13;10.47;;;0.30;1.00;;;;;;5099806;28;20179;-83
2023/12/03 08:37:26;;;;;;;30.87;9.50;;;0.30;1.60;;;;;;5081089;28;20164;-83
2023/12/03 08:39:52;;;;;;;33.20;9.23;;;0.40;2.50;;;;;;5099376;28;20201;-83
2023/12/03 08:42:19;;;;;;;30.60;9.83;;;0.40;1.00;;;;;;5081289;28;20171;-81
2023/12/03 08:44:45;;;;;;;32.80;8.90;;;0.50;1.00;;;;;;5081058;28;20847;-81
2023/12/03 08:47:10;;;;;;;30.33;9.67;;;0.50;1.00;;;;;;5099424;28;20154;-81
2023/12/03 08:49:36;;;;;;;33.00;9.60;;;0.50;1.00;;;;;;5098864;28;20900;-81
2023/12/03 08:52:02;;;;;;;29.33;8.53;;;0.60;1.00;;;;;;5081303;28;20167;-81
2023/12/03 08:54:28;;;;;;;30.63;8.73;;;0.60;1.00;;;;;;5098962;28;20612;-81
2023/12/03 08:56:53;;;;;;;30.53;10.00;;;0.70;1.00;;;;;;5099326;28;20163;-81
2023/12/03 08:59:24;;;;;;;30.87;9.37;;;0.60;1.00;;;;;;5098826;28;20286;-81
2023/12/03 09:01:50;;;;;;;29.27;9.02;;;0.60;1.00;;;;;;5099178;28;20162;-81
2023/12/03 09:04:19;;;;;;;33.00;10.48;;;0.60;1.00;;;;;;5080824;28;20693;-81
2023/12/03 09:06:48;;;;;;;28.42;8.55;;;0.70;1.00;;;;;;5099883;28;20194;-81
2023/12/03 09:09:14;;;;;;;30.38;8.85;;;0.80;1.00;;;;;;5080310;28;20170;-81
2023/12/03 09:11:43;;;;;;;39.97;11.73;;;0.70;1.00;;;;;;5098987;28;20192;-80
2023/12/03 09:14:34;;;;;;;32.45;10.05;;;0.80;1.00;;;;;;5080751;28;20473;-81
2023/12/03 09:17:00;;;;;;;32.80;10.23;;;0.80;1.00;;;;;;5080823;28;20200;-81
2023/12/03 09:19:34;;;;;;;35.47;9.27;;;0.80;1.00;;;;;;5080810;28;20190;-81
2023/12/03 09:22:00;;;;;;;38.38;11.25;;;0.80;1.00;;;;;;5098585;28;20184;-81
2023/12/03 09:24:26;;;;;;;33.30;10.03;;;0.90;1.00;;;;;;5098490;28;20184;-81
2023/12/03 09:26:51;;;;;;;33.30;9.77;;;1.00;1.00;;;;;;5098894;28;20639;-81
2023/12/03 09:29:19;;;;;;;33.67;9.70;;;1.10;1.00;;;;;;5098925;28;20161;-83
2023/12/03 09:31:44;;;;;;;31.95;10.27;;;1.10;1.00;;;;;;5098284;28;20179;-84
2023/12/03 09:34:13;;;;;;;33.53;10.07;;;1.20;1.00;;;;;;5079032;28;20199;-83
2023/12/03 09:36:39;;;;;;;35.38;9.98;;;1.30;1.00;;;;;;5097374;28;20255;-83
2023/12/03 09:39:05;;;;;;;30.63;8.87;;;1.30;1.00;;;;;;5099054;28;20607;-83
2023/12/03 09:41:33;;;;;;;31.25;9.80;;;1.30;1.00;;;;;;5098849;28;20623;-81
2023/12/03 09:44:07;;;;;;;29.13;7.82;;;1.30;1.00;;;;;;5078831;28;20630;-83
2023/12/03 09:46:38;;;;;;;30.77;9.75;;;1.50;1.00;;;;;;5097779;28;20227;-83
2023/12/03 09:49:10;;;;;;;29.60;9.23;;;1.60;1.00;;;;;;5097799;28;20152;-83
2023/12/03 09:51:40;;;;;;;30.85;8.68;;;1.60;1.00;;;;;;5079464;28;20198;-80
2023/12/03 09:54:06;;;;;;;31.08;9.68;;;1.60;1.00;;;;;;5097320;28;20182;-81
2023/12/03 09:56:33;;;;;;;35.13;11.60;;;1.60;1.00;;;;;;5080272;28;20213;-81
2023/12/03 09:58:59;;;;;;;29.88;8.48;;;1.60;1.00;;;;;;5097379;28;20238;-81
2023/12/03 10:01:26;;;;;;;27.90;8.57;;;1.50;1.00;;;;;;5079900;28;20160;-81
2023/12/03 10:03:52;;;;;;;30.73;10.30;;;1.70;1.00;;;;;;5097659;28;20424;-81
2023/12/03 10:06:22;;;;;;;28.33;8.00;;;1.80;1.00;;;;;;5097654;28;20152;-81
2023/12/03 10:08:51;;;;;;;27.88;8.95;;;1.80;1.00;;;;;;5097797;28;20144;-81
2023/12/03 10:11:25;;;;;;;29.55;8.63;;;1.70;1.00;;;;;;5097992;28;20168;-81
2023/12/03 10:13:51;;;;;;;30.80;9.00;;;1.70;1.00;;;;;;5079476;28;20205;-81
2023/12/03 10:16:19;;;;;;;33.40;10.13;;;1.70;1.00;;;;;;5079367;28;20171;-81
2023/12/03 10:18:45;;;;;;;31.60;11.27;;;1.70;1.00;;;;;;5079117;28;20218;-81
2023/12/03 10:21:11;;;;;;;32.00;10.70;;;1.80;1.00;;;;;;5097643;28;20179;-81
2023/12/03 10:23:38;;;;;;;33.40;10.75;;;2.00;1.00;;;;;;5097301;28;20187;-81
2023/12/03 10:26:13;;;;;;;32.42;9.02;;;2.10;1.00;;;;;;5079182;28;20170;-81
2023/12/03 10:28:40;;;;;;;29.80;9.85;;;2.10;1.00;;;;;;5080006;28;20166;-81
2023/12/03 10:31:18;;;;;;;30.70;10.38;;;2.10;1.00;;;;;;5079222;28;20175;-81
2023/12/03 10:33:47;;;;;;;29.10;8.30;;;2.30;1.00;;;;;;5097815;28;20184;-81
2023/12/03 10:36:13;;;;;;;30.40;9.65;;;2.30;1.00;;;;;;5079305;28;20246;-81
2023/12/03 10:38:41;;;;;;;27.77;9.73;;;2.30;1.00;;;;;;5098334;28;20222;-81
2023/12/03 10:41:08;;;;;;;26.70;8.98;;;2.40;1.00;;;;;;5098369;28;20160;-81
2023/12/03 10:43:38;;;;;;;32.90;9.90;;;2.30;1.00;;;;;;5098039;28;20176;-81
2023/12/03 10:46:05;;;;;;;28.02;8.38;;;2.20;1.00;;;;;;5098592;28;20221;-81
2023/12/03 10:48:32;;;;;;;29.15;9.13;;;2.10;1.00;;;;;;5099364;28;20159;-81
2023/12/03 10:51:05;;;;;;;29.45;8.10;;;2.30;1.00;;;;;;5166954;22;20255;-84
2023/12/03 10:56:04;;;;;;;29.63;8.13;;;2.50;1.00;;;;;;5057035;28;20200;-82
2023/12/03 10:58:31;;;;;;;26.70;7.35;;;2.50;1.00;;;;;;5058569;28;20603;-82
2023/12/03 11:01:19;;;;;;;26.60;8.88;;;2.70;1.00;;;;;;5058778;28;20183;-82
2023/12/03 11:03:57;;;;;;;29.60;8.65;;;2.80;1.00;;;;;;5058262;28;20176;-82
2023/12/03 11:06:24;;;;;;;28.08;8.32;;;2.90;1.00;;;;;;5057450;28;20157;-82
2023/12/03 11:08:54;;;;;;;26.05;8.23;;;2.70;1.00;;;;;;5057592;28;20169;-82
2023/12/03 11:11:21;;;;;;;29.20;8.20;;;2.60;1.00;;;;;;5058131;28;20165;-82
2023/12/03 11:14:04;;;;;;;25.65;8.65;;;2.60;1.00;;;;;;5058673;28;20177;-82
2023/12/03 11:16:53;;;;;;;26.60;8.50;;;2.70;1.00;;;;;;5058639;28;20149;-82
2023/12/03 11:19:21;;;;;;;28.60;9.55;;;2.80;1.00;;;;;;5057382;28;20227;-82
2023/12/03 11:21:56;;;;;;;29.13;8.70;;;2.80;1.00;;;;;;5058427;28;20537;-82
2023/12/03 11:24:39;;;;;;;27.05;8.50;;;2.70;1.00;;;;;;5057776;28;20184;-82
2023/12/03 11:27:08;;;;;;;28.40;9.13;;;2.60;1.00;;;;;;5058336;28;20161;-82
2023/12/03 11:29:50;;;;;;;28.27;8.65;;;2.60;1.00;;;;;;5060269;28;20200;-82
2023/12/03 11:32:20;;;;;;;31.10;8.52;;;2.70;1.00;;;;;;5058505;28;20592;-82
2023/12/03 11:35:12;;;;;;;27.13;8.45;;;2.80;1.00;;;;;;5057918;28;20216;-82
2023/12/03 11:37:42;;;;;;;26.77;9.35;;;2.80;1.00;;;;;;5056698;28;20191;-82
2023/12/03 11:40:13;;;;;;;28.90;8.75;;;2.80;1.00;;;;;;5058402;28;20170;-82
2023/12/03 11:42:43;;;;;;;25.83;8.15;;;2.70;1.00;;;;;;5058658;28;20165;-82
2023/12/03 11:45:17;;;;;;;29.58;9.32;;;2.60;1.00;;;;;;5059546;28;20177;-82
2023/12/03 11:47:45;;;;;;;27.40;9.30;;;2.50;1.00;;;;;;5058470;28;20175;-82
2023/12/03 11:50:14;;;;;;;28.40;10.20;;;2.60;1.00;;;;;;5060308;28;20166;-82
2023/12/03 11:52:41;;;;;;;33.47;10.45;;;2.60;1.00;;;;;;5060595;28;20161;-82
2023/12/03 11:55:16;;;;;;;30.83;9.10;;;2.60;1.00;;;;;;5059686;28;20280;-82
2023/12/03 11:57:43;;;;;;;29.40;9.98;;;2.50;1.00;;;;;;5059289;28;20167;-82
2023/12/03 12:00:11;;;;;;;32.75;10.13;;;2.40;1.00;;;;;;5059843;28;20184;-82
2023/12/03 12:02:36;;;;;;;27.40;9.05;;;2.40;1.00;;;;;;5060429;28;20157;-82
2023/12/03 12:05:03;;;;;;;30.63;9.93;;;2.40;1.00;;;;;;5059684;28;20186;-82
2023/12/03 12:07:29;;;;;;;31.20;9.45;;;2.50;1.00;;;;;;5062951;28;20174;-81
2023/12/03 12:09:54;;;;;;;26.73;7.80;;;2.60;1.00;;;;;;5063589;28;20227;-82
2023/12/03 12:12:20;;;;;;;27.70;7.67;;;2.70;1.00;;;;;;5064856;28;20192;-81
2023/12/03 12:14:46;;;;;;;31.47;8.20;;;2.70;1.00;;;;;;5064984;28;20545;-82
2023/12/03 12:17:11;;;;;;;25.90;7.03;;;2.70;1.00;;;;;;5064781;28;20161;-82
2023/12/03 12:19:50;;;;;;;27.40;8.77;;;2.60;1.00;;;;;;5064858;28;20280;-82
2023/12/03 12:22:16;;;;;;;24.98;6.70;;;2.70;1.00;;;;;;5065341;28;20157;-82
2023/12/03 12:24:44;;;;;;;33.85;8.40;;;2.80;1.00;;;;;;5063983;28;20427;-82
2023/12/03 12:27:10;;;;;;;28.77;10.25;;;2.80;1.00;;;;;;5064132;28;20169;-82
2023/12/03 12:29:36;;;;;;;27.50;7.10;;;2.90;1.00;;;;;;5065974;28;20162;-82
2023/12/03 12:32:03;;;;;;;28.50;8.10;;;2.90;1.00;;;;;;5066056;28;20426;-82
2023/12/03 12:34:29;;;;;;;29.88;9.10;;;2.80;1.00;;;;;;5066015;28;20678;-82
2023/12/03 12:37:02;;;;;;;25.38;8.85;;;2.90;1.00;;;;;;5065366;28;20173;-82
2023/12/03 12:39:28;;;;;;;25.77;7.95;;;2.90;1.00;;;;;;5065001;28;20732;-81
2023/12/03 12:41:58;;;;;;;27.40;7.97;;;2.90;1.00;;;;;;5065621;28;20638;-83
2023/12/03 12:44:38;;;;;;;30.33;8.90;;;3.00;1.00;;;;;;5065629;28;20598;-81
2023/12/03 12:47:04;;;;;;;26.65;8.23;;;2.90;1.00;;;;;;5065508;28;20163;-82
2023/12/03 12:49:29;;;;;;;25.80;8.00;;;3.00;1.00;;;;;;5066577;28;20256;-84